Time;durP1;ratioP1;P1;durP2;ratioP2;P2;SDS_P1;SDS_P2;PMS_P1;PMS_P2;Temp;Humidity;BMP_temperature;BMP_pressure;BME280_temperature;BME280_humidity;BME280_pressure;Samples;Min_cycle;Max_cycle;Signal;HPM_P1;HPM_P2
2021/12/08 00:00:59;;;;;;;35.67;21.07;;;2.40;90.10;;;;;;4958167;29;20206;-69
2021/12/08 00:03:30;;;;;;;30.40;21.17;;;2.40;90.10;;;;;;4957429;29;20216;-69
2021/12/08 00:05:59;;;;;;;33.63;21.87;;;2.40;90.00;;;;;;4957498;29;20224;-69
2021/12/08 00:08:30;;;;;;;37.40;21.83;;;2.30;90.10;;;;;;4958785;29;20213;-69
2021/12/08 00:13:30;;;;;;;32.40;22.00;;;2.40;90.40;;;;;;4955958;29;20238;-69
2021/12/08 00:16:02;;;;;;;42.83;23.23;;;2.40;90.60;;;;;;4956297;28;20221;-69
2021/12/08 00:18:32;;;;;;;37.50;22.90;;;2.50;91.00;;;;;;4958472;29;20243;-69
2021/12/08 00:21:03;;;;;;;35.57;21.80;;;2.50;90.70;;;;;;4958892;28;20676;-69
2021/12/08 00:23:30;;;;;;;36.47;22.70;;;2.60;90.70;;;;;;4958036;29;20328;-69
2021/12/08 00:25:58;;;;;;;29.63;20.53;;;2.60;90.60;;;;;;4959027;28;20250;-69
2021/12/08 00:28:26;;;;;;;29.70;20.97;;;2.70;90.60;;;;;;4959702;28;20641;-69
2021/12/08 00:30:56;;;;;;;32.40;21.37;;;2.70;90.40;;;;;;4957332;29;20638;-69
2021/12/08 00:33:27;;;;;;;35.37;21.33;;;2.70;90.20;;;;;;4973139;28;20229;-69
2021/12/08 00:35:55;;;;;;;32.17;21.53;;;2.70;90.20;;;;;;4958764;28;20208;-69
2021/12/08 00:38:23;;;;;;;36.13;22.70;;;2.70;90.10;;;;;;4958714;28;20213;-69
2021/12/08 00:40:52;;;;;;;34.30;20.37;;;2.80;90.20;;;;;;4957676;29;20206;-69
2021/12/08 00:43:20;;;;;;;31.10;18.63;;;2.70;90.10;;;;;;4958935;28;20627;-69
2021/12/08 00:45:48;;;;;;;34.13;20.07;;;2.70;89.60;;;;;;4956283;28;20221;-69
2021/12/08 00:48:17;;;;;;;29.90;20.33;;;2.70;89.10;;;;;;4958140;29;20202;-69
2021/12/08 00:50:44;;;;;;;33.50;20.60;;;2.70;88.80;;;;;;4957230;29;20303;-69
2021/12/08 00:53:11;;;;;;;33.03;21.50;;;2.60;88.20;;;;;;4958360;28;20538;-69
2021/12/08 00:55:39;;;;;;;32.77;22.07;;;2.50;88.10;;;;;;4958118;28;20227;-69
2021/12/08 00:58:07;;;;;;;28.50;19.87;;;2.50;88.30;;;;;;4957902;29;20265;-69
2021/12/08 01:00:38;;;;;;;34.43;19.23;;;2.40;88.10;;;;;;4958056;28;20209;-69
2021/12/08 01:03:10;;;;;;;36.30;22.00;;;2.30;88.10;;;;;;4958080;28;20268;-69
2021/12/08 01:05:42;;;;;;;37.70;22.13;;;2.20;88.20;;;;;;4956657;29;20201;-69
2021/12/08 01:08:10;;;;;;;34.17;22.53;;;2.10;88.60;;;;;;4939438;29;20229;-69
2021/12/08 01:10:39;;;;;;;29.67;21.70;;;2.10;89.30;;;;;;4956189;28;20206;-69
2021/12/08 01:13:08;;;;;;;36.30;22.67;;;2.10;90.00;;;;;;4958615;28;20215;-69
2021/12/08 01:15:40;;;;;;;30.20;20.00;;;2.10;90.10;;;;;;4956818;29;20237;-69
2021/12/08 01:18:07;;;;;;;32.47;21.90;;;2.20;90.30;;;;;;4958809;28;20219;-69
2021/12/08 01:20:34;;;;;;;45.70;24.00;;;2.20;90.20;;;;;;4953543;29;20209;-69
2021/12/08 01:23:03;;;;;;;31.73;20.17;;;2.20;90.20;;;;;;4957168;29;20244;-69
2021/12/08 01:25:31;;;;;;;31.67;19.97;;;2.10;90.30;;;;;;4965638;28;20222;-69
2021/12/08 01:27:58;;;;;;;38.20;22.57;;;2.10;90.20;;;;;;4958373;28;20219;-69
2021/12/08 01:30:26;;;;;;;31.67;21.33;;;2.10;90.00;;;;;;4957703;28;20214;-69
2021/12/08 01:32:57;;;;;;;30.43;20.10;;;2.10;90.00;;;;;;4954975;29;20213;-69
2021/12/08 01:35:25;;;;;;;37.13;22.37;;;2.10;88.80;;;;;;4955175;28;20260;-69
2021/12/08 01:37:53;;;;;;;36.87;23.47;;;2.00;88.70;;;;;;4955831;29;20534;-69
2021/12/08 01:40:20;;;;;;;33.70;21.73;;;2.00;89.10;;;;;;4955816;28;20237;-69
2021/12/08 01:42:51;;;;;;;36.80;22.67;;;2.00;89.80;;;;;;4957047;28;20579;-69
2021/12/08 01:48:10;;;;;;;34.10;23.43;;;2.00;90.10;;;;;;4958068;28;20292;-69
2021/12/08 01:50:40;;;;;;;40.00;24.83;;;2.00;90.20;;;;;;4956920;29;20293;-69
2021/12/08 01:53:08;;;;;;;39.17;24.77;;;2.00;90.30;;;;;;4957060;29;20308;-69
2021/12/08 01:55:36;;;;;;;42.17;28.57;;;2.10;90.70;;;;;;4955703;29;20252;-69
2021/12/08 01:58:05;;;;;;;41.37;26.30;;;2.20;90.90;;;;;;4957685;28;20207;-69
2021/12/08 02:00:57;;;;;;;45.93;26.83;;;2.30;91.10;;;;;;4956510;29;20198;-69
2021/12/08 02:03:25;;;;;;;43.03;27.53;;;2.30;91.30;;;;;;4956291;29;20540;-69
2021/12/08 02:05:54;;;;;;;41.73;27.20;;;2.50;91.40;;;;;;4956424;29;20228;-69
2021/12/08 02:08:22;;;;;;;42.07;28.23;;;2.50;91.40;;;;;;4960660;28;20264;-69
2021/12/08 02:10:50;;;;;;;43.70;27.70;;;2.60;91.50;;;;;;4956742;28;20222;-69
2021/12/08 02:13:17;;;;;;;55.17;30.23;;;2.60;91.50;;;;;;4957077;28;20241;-69
2021/12/08 02:15:46;;;;;;;47.70;30.73;;;2.70;91.50;;;;;;4954620;29;20305;-69
2021/12/08 02:18:15;;;;;;;44.87;30.37;;;2.70;91.50;;;;;;4957310;28;20304;-69
2021/12/08 02:20:46;;;;;;;42.43;29.10;;;2.80;91.50;;;;;;4953776;29;20280;-69
2021/12/08 02:23:14;;;;;;;49.00;30.30;;;2.80;91.50;;;;;;4956644;28;20632;-69
2021/12/08 02:25:41;;;;;;;43.77;29.50;;;2.90;91.50;;;;;;4955290;29;20538;-69
2021/12/08 02:28:10;;;;;;;46.43;29.60;;;3.00;91.40;;;;;;4955499;29;20224;-69
2021/12/08 02:30:45;;;;;;;46.27;29.90;;;3.00;91.40;;;;;;4956416;28;20687;-69
2021/12/08 02:47:44;;;;;;;46.93;29.53;;;3.20;91.20;;;;;;4955094;29;20302;-69
2021/12/08 02:50:12;;;;;;;41.00;28.43;;;3.30;91.30;;;;;;4956153;29;20642;-69
2021/12/08 02:52:39;;;;;;;48.17;28.97;;;3.30;91.20;;;;;;4960515;28;20314;-69
2021/12/08 02:55:08;;;;;;;43.87;29.07;;;3.30;91.20;;;;;;4956284;28;20313;-69
2021/12/08 02:57:35;;;;;;;40.43;27.70;;;3.40;91.20;;;;;;4968972;28;20211;-69
2021/12/08 03:00:09;;;;;;;46.73;29.43;;;3.40;91.20;;;;;;4956499;29;20277;-69
2021/12/08 03:02:36;;;;;;;40.90;27.83;;;3.40;91.20;;;;;;4954861;29;20642;-69
2021/12/08 03:05:04;;;;;;;46.87;29.53;;;3.50;91.20;;;;;;4955677;29;20253;-69
2021/12/08 03:07:31;;;;;;;42.33;30.30;;;3.50;91.10;;;;;;4955442;29;20310;-69
2021/12/08 03:10:09;;;;;;;43.40;29.87;;;3.50;91.20;;;;;;4956977;28;20217;-69
2021/12/08 03:12:37;;;;;;;39.47;29.37;;;3.50;91.20;;;;;;4942408;29;20214;-69
2021/12/08 03:15:06;;;;;;;46.10;29.50;;;3.60;91.20;;;;;;4956427;28;20251;-69
2021/12/08 03:17:35;;;;;;;44.27;29.20;;;3.60;91.10;;;;;;4955978;28;20233;-69
2021/12/08 03:20:08;;;;;;;43.43;29.80;;;3.50;91.10;;;;;;4956486;28;20211;-69
2021/12/08 03:22:41;;;;;;;45.87;31.50;;;3.50;91.10;;;;;;4952482;29;20246;-69
2021/12/08 03:25:13;;;;;;;44.43;30.60;;;3.50;91.20;;;;;;4954729;29;20576;-69
2021/12/08 03:27:48;;;;;;;45.17;29.43;;;3.50;91.20;;;;;;4970611;28;20219;-69
2021/12/08 03:30:29;;;;;;;44.13;28.70;;;3.50;91.20;;;;;;4960247;28;20223;-69
2021/12/08 03:32:58;;;;;;;45.03;29.07;;;3.50;91.20;;;;;;4953006;29;20685;-69
2021/12/08 03:35:26;;;;;;;42.90;29.07;;;3.50;91.20;;;;;;4955251;28;20257;-69
2021/12/08 03:37:53;;;;;;;43.40;30.10;;;3.50;91.20;;;;;;4955038;28;20206;-69
2021/12/08 03:40:25;;;;;;;43.63;29.90;;;3.60;91.20;;;;;;4937247;29;20587;-69
2021/12/08 03:42:55;;;;;;;42.17;28.80;;;3.60;91.20;;;;;;4954259;29;20210;-69
2021/12/08 03:45:30;;;;;;;41.10;29.20;;;3.60;91.20;;;;;;4951128;29;20207;-69
2021/12/08 03:48:03;;;;;;;44.00;29.53;;;3.60;91.20;;;;;;4954323;29;20214;-69
2021/12/08 03:50:33;;;;;;;45.93;30.43;;;3.60;91.20;;;;;;4938466;29;20221;-69
2021/12/08 03:53:00;;;;;;;42.13;28.87;;;3.60;91.10;;;;;;4955931;28;20289;-69
2021/12/08 03:55:27;;;;;;;44.33;28.87;;;3.60;91.10;;;;;;4955258;28;20306;-69
2021/12/08 03:57:55;;;;;;;38.87;28.13;;;3.60;91.10;;;;;;4956033;28;20559;-69
2021/12/08 04:00:26;;;;;;;44.23;28.33;;;3.60;91.20;;;;;;4953333;29;20206;-69
2021/12/08 04:02:54;;;;;;;38.90;27.20;;;3.60;91.10;;;;;;4954280;28;20459;-69
2021/12/08 04:05:31;;;;;;;38.80;27.87;;;3.60;91.10;;;;;;4955337;28;20289;-69
2021/12/08 04:08:04;;;;;;;36.80;27.13;;;3.60;91.10;;;;;;4956141;28;20215;-69
2021/12/08 04:10:32;;;;;;;41.17;29.60;;;3.60;91.10;;;;;;4953535;28;20208;-69
2021/12/08 04:12:59;;;;;;;44.37;28.90;;;3.60;91.10;;;;;;4956104;28;20225;-69
2021/12/08 04:15:26;;;;;;;41.23;27.77;;;3.60;91.00;;;;;;4954680;28;20299;-69
2021/12/08 04:17:55;;;;;;;43.47;28.00;;;3.60;91.00;;;;;;4955094;29;20215;-70
2021/12/08 04:20:51;;;;;;;41.43;27.00;;;3.60;91.00;;;;;;4955695;28;20614;-69
2021/12/08 04:23:22;;;;;;;41.77;26.67;;;3.60;91.00;;;;;;4954739;29;20302;-69
2021/12/08 04:25:53;;;;;;;40.77;28.30;;;3.60;91.30;;;;;;4954934;29;20282;-69
2021/12/08 04:28:26;;;;;;;41.40;27.43;;;3.60;91.10;;;;;;4954695;29;20294;-69
2021/12/08 04:30:55;;;;;;;42.73;29.13;;;3.60;91.10;;;;;;4953055;29;20209;-69
2021/12/08 04:33:24;;;;;;;42.20;27.60;;;3.60;91.10;;;;;;4968758;28;20561;-69
2021/12/08 04:35:53;;;;;;;41.00;27.63;;;3.60;91.10;;;;;;4955631;28;20751;-69
2021/12/08 04:38:30;;;;;;;40.97;28.73;;;3.60;91.10;;;;;;4955263;28;20230;-69
2021/12/08 04:41:06;;;;;;;36.13;26.30;;;3.60;91.20;;;;;;4954681;29;20286;-69
2021/12/08 05:00:44;;;;;;;34.87;23.80;;;3.50;90.60;;;;;;4957409;29;20202;-69
2021/12/08 05:08:56;;;;;;;36.20;24.57;;;3.40;90.60;;;;;;4956829;28;20293;-69
2021/12/08 05:11:28;;;;;;;36.83;24.70;;;3.40;90.70;;;;;;4957760;28;20240;-69
2021/12/08 05:13:59;;;;;;;38.57;24.27;;;3.40;90.90;;;;;;4956871;29;20242;-69
2021/12/08 05:16:27;;;;;;;35.07;24.23;;;3.40;91.00;;;;;;4970879;28;20253;-69
2021/12/08 05:18:57;;;;;;;36.27;22.63;;;3.40;91.10;;;;;;4964152;28;20535;-69
2021/12/08 05:21:48;;;;;;;37.40;25.07;;;3.50;91.20;;;;;;4957500;28;20218;-69
2021/12/08 05:24:32;;;;;;;35.07;22.20;;;3.50;91.10;;;;;;4972137;28;20246;-69
2021/12/08 05:27:25;;;;;;;36.57;24.43;;;3.50;91.00;;;;;;4956705;29;20268;-69
2021/12/08 05:29:58;;;;;;;33.83;24.97;;;3.50;90.90;;;;;;4959526;28;20306;-69
2021/12/08 05:32:26;;;;;;;33.90;23.20;;;3.50;90.80;;;;;;4939829;29;20210;-69
2021/12/08 05:34:53;;;;;;;35.70;24.07;;;3.50;90.80;;;;;;4957560;29;20284;-69
2021/12/08 05:37:23;;;;;;;35.67;24.50;;;3.50;90.80;;;;;;4955114;28;20202;-69
2021/12/08 05:39:52;;;;;;;36.20;23.47;;;3.50;90.90;;;;;;4958516;28;20202;-69
2021/12/08 05:42:32;;;;;;;32.97;21.37;;;3.50;90.90;;;;;;4958085;28;20207;-69
2021/12/08 05:45:00;;;;;;;27.70;19.53;;;3.50;90.90;;;;;;4956056;29;20228;-69
2021/12/08 05:47:29;;;;;;;26.03;19.83;;;3.60;91.00;;;;;;4958083;28;20302;-69
2021/12/08 05:49:57;;;;;;;33.73;19.37;;;3.50;91.20;;;;;;4957555;29;20293;-69
2021/12/08 05:52:25;;;;;;;25.03;18.63;;;3.60;90.90;;;;;;4957566;29;20293;-69
2021/12/08 05:54:59;;;;;;;30.73;18.07;;;3.50;90.80;;;;;;4956148;29;20717;-69
2021/12/08 05:57:32;;;;;;;27.10;17.63;;;3.50;90.90;;;;;;4963118;28;20609;-69
2021/12/08 06:00:01;;;;;;;22.07;17.00;;;3.50;90.90;;;;;;4956569;29;20213;-69
2021/12/08 06:02:39;;;;;;;22.63;15.00;;;3.50;90.90;;;;;;4956528;29;20293;-69
2021/12/08 06:05:09;;;;;;;22.70;16.90;;;3.50;91.00;;;;;;4957843;28;20210;-69
2021/12/08 06:07:36;;;;;;;27.30;17.10;;;3.50;91.00;;;;;;4955198;28;20541;-69
2021/12/08 06:10:09;;;;;;;25.00;16.70;;;3.50;91.00;;;;;;4957178;28;20244;-69
2021/12/08 06:12:37;;;;;;;20.83;16.47;;;3.60;91.10;;;;;;4963123;28;20245;-69
2021/12/08 06:15:05;;;;;;;22.77;16.00;;;3.60;91.10;;;;;;4957817;28;20317;-69
2021/12/08 06:17:32;;;;;;;22.10;15.33;;;3.60;91.10;;;;;;4968055;28;20202;-69
2021/12/08 06:20:00;;;;;;;22.03;15.53;;;3.60;91.10;;;;;;4956998;29;20221;-69
2021/12/08 06:22:29;;;;;;;21.10;15.57;;;3.60;91.00;;;;;;4955646;29;20310;-69
2021/12/08 06:24:56;;;;;;;19.00;14.80;;;3.70;90.90;;;;;;4965814;28;20698;-69
2021/12/08 06:27:27;;;;;;;21.97;14.97;;;3.70;90.80;;;;;;4957368;28;20223;-69
2021/12/08 06:29:54;;;;;;;21.07;14.87;;;3.70;90.80;;;;;;4956896;29;20247;-69
2021/12/08 06:32:22;;;;;;;21.13;15.23;;;3.70;90.70;;;;;;4955615;28;20214;-69
2021/12/08 06:34:55;;;;;;;27.50;16.03;;;3.70;90.70;;;;;;4961370;28;20259;-69
2021/12/08 06:37:30;;;;;;;23.50;14.90;;;3.80;90.70;;;;;;4952808;28;20230;-69
2021/12/08 06:40:07;;;;;;;19.33;14.10;;;3.80;90.70;;;;;;4971198;28;20589;-69
2021/12/08 06:42:38;;;;;;;19.13;14.77;;;3.80;90.60;;;;;;4956792;28;20230;-69
2021/12/08 06:45:09;;;;;;;21.80;15.10;;;3.80;90.50;;;;;;4955700;29;20207;-69
2021/12/08 06:47:41;;;;;;;23.37;14.80;;;3.90;90.50;;;;;;4955172;28;20286;-69
2021/12/08 06:50:15;;;;;;;20.73;15.73;;;3.90;90.20;;;;;;4955284;29;20660;-69
2021/12/08 06:52:42;;;;;;;20.63;14.63;;;3.90;90.20;;;;;;4952514;28;20583;-69
2021/12/08 06:55:10;;;;;;;16.90;13.30;;;3.90;90.10;;;;;;4955158;29;20727;-69
2021/12/08 06:57:51;;;;;;;17.90;13.40;;;3.90;90.10;;;;;;4953898;29;20238;-69
2021/12/08 07:00:56;;;;;;;22.13;13.57;;;4.00;90.00;;;;;;4953030;29;20645;-69
2021/12/08 07:03:45;;;;;;;17.63;13.10;;;4.00;89.90;;;;;;4954376;29;20239;-69
2021/12/08 07:06:40;;;;;;;19.97;13.20;;;4.00;89.70;;;;;;4954068;28;20215;-69
2021/12/08 07:09:21;;;;;;;21.70;13.57;;;4.00;89.60;;;;;;4954963;28;20288;-69
2021/12/08 07:11:52;;;;;;;21.00;13.80;;;4.00;89.50;;;;;;4953965;29;20304;-69
2021/12/08 07:14:22;;;;;;;19.93;13.57;;;4.00;89.50;;;;;;4951901;29;20294;-69
2021/12/08 07:16:57;;;;;;;20.53;13.33;;;4.00;89.70;;;;;;4953141;29;20224;-69
2021/12/08 07:19:41;;;;;;;19.50;12.73;;;4.00;89.70;;;;;;4949578;29;20925;-70
2021/12/08 07:22:16;;;;;;;18.77;13.00;;;4.00;89.70;;;;;;4967681;28;20285;-69
2021/12/08 07:24:47;;;;;;;16.93;12.27;;;4.10;89.80;;;;;;4953134;28;20233;-69
2021/12/08 07:27:20;;;;;;;19.30;12.90;;;4.10;89.70;;;;;;4955168;28;20244;-69
2021/12/08 07:29:49;;;;;;;18.13;11.70;;;4.10;89.40;;;;;;4953193;29;20231;-69
2021/12/08 07:32:19;;;;;;;15.83;11.90;;;4.10;89.30;;;;;;4952592;29;21130;-69
2021/12/08 07:34:50;;;;;;;16.10;12.00;;;4.10;89.00;;;;;;4953751;28;20259;-69
2021/12/08 07:37:21;;;;;;;15.40;10.93;;;4.10;89.40;;;;;;4948759;29;20534;-69
2021/12/08 07:40:07;;;;;;;16.20;11.37;;;4.20;88.80;;;;;;4955329;28;20255;-69
2021/12/08 07:42:44;;;;;;;14.63;10.30;;;4.20;88.40;;;;;;4966940;28;20226;-69
2021/12/08 07:45:17;;;;;;;15.40;10.97;;;4.20;88.20;;;;;;4967277;28;20209;-69
2021/12/08 07:47:45;;;;;;;16.33;11.37;;;4.30;88.30;;;;;;4951611;29;20257;-69
2021/12/08 07:50:31;;;;;;;17.97;10.60;;;4.40;88.30;;;;;;4955185;28;20258;-69
2021/12/08 07:53:00;;;;;;;18.13;11.13;;;4.40;88.40;;;;;;4954221;29;20630;-69
2021/12/08 07:55:35;;;;;;;16.00;10.90;;;4.40;88.40;;;;;;4953927;29;20254;-69
2021/12/08 07:58:04;;;;;;;18.37;10.07;;;4.40;88.50;;;;;;4952970;29;20232;-69
2021/12/08 08:00:35;;;;;;;12.97;10.10;;;4.50;88.60;;;;;;4954641;28;20210;-69
2021/12/08 08:03:05;;;;;;;15.47;10.70;;;4.50;88.40;;;;;;4950799;28;20272;-69
2021/12/08 08:05:34;;;;;;;12.00;9.33;;;4.50;88.30;;;;;;4954443;28;20204;-69
2021/12/08 08:08:06;;;;;;;13.47;9.53;;;4.50;88.10;;;;;;4953280;28;20208;-69
2021/12/08 08:10:41;;;;;;;12.67;10.00;;;4.50;88.10;;;;;;4955125;28;20210;-69
2021/12/08 08:13:12;;;;;;;14.23;9.60;;;4.60;88.10;;;;;;4950467;29;20307;-69
2021/12/08 08:15:44;;;;;;;14.77;10.60;;;4.70;88.10;;;;;;4953576;29;20680;-69
2021/12/08 08:18:16;;;;;;;15.10;10.30;;;4.60;88.10;;;;;;4951340;29;20286;-69
2021/12/08 08:20:49;;;;;;;14.60;10.30;;;4.70;88.00;;;;;;4956230;28;20231;-69
2021/12/08 08:23:19;;;;;;;16.17;11.17;;;4.70;87.70;;;;;;4958629;28;20805;-69
2021/12/08 08:25:49;;;;;;;16.17;10.80;;;4.70;87.80;;;;;;4953918;29;20214;-69
2021/12/08 08:28:17;;;;;;;15.93;10.73;;;4.70;87.90;;;;;;4959358;28;20224;-69
2021/12/08 08:31:03;;;;;;;18.53;11.40;;;4.70;88.00;;;;;;4962489;28;20275;-69
2021/12/08 08:33:35;;;;;;;18.33;12.87;;;4.70;88.10;;;;;;4973923;28;20215;-69
2021/12/08 08:36:07;;;;;;;17.83;12.33;;;4.70;88.00;;;;;;4963352;28;20258;-69
2021/12/08 08:38:40;;;;;;;16.30;12.57;;;4.70;87.90;;;;;;4956961;29;20222;-69
2021/12/08 08:41:12;;;;;;;18.57;13.73;;;4.70;88.00;;;;;;4972622;28;20334;-69
2021/12/08 08:43:40;;;;;;;18.07;14.37;;;4.70;88.10;;;;;;4971525;28;20713;-69
2021/12/08 08:46:15;;;;;;;23.07;15.07;;;4.70;88.10;;;;;;4963117;28;20227;-69
2021/12/08 08:48:48;;;;;;;26.03;15.73;;;4.80;88.30;;;;;;4971692;28;20242;-69
2021/12/08 08:51:28;;;;;;;21.40;15.80;;;4.70;88.30;;;;;;4958092;28;20220;-69
2021/12/08 08:54:01;;;;;;;22.20;14.90;;;4.70;88.40;;;;;;4959465;29;20210;-69
2021/12/08 08:56:33;;;;;;;20.27;13.80;;;4.80;88.30;;;;;;4971054;28;20215;-69
2021/12/08 08:59:10;;;;;;;23.37;13.60;;;4.80;88.10;;;;;;4954858;29;20202;-69
2021/12/08 09:01:43;;;;;;;16.70;11.93;;;4.80;88.30;;;;;;4955972;29;20198;-69
2021/12/08 09:04:34;;;;;;;16.33;11.10;;;4.80;88.70;;;;;;4953213;28;20723;-69
2021/12/08 09:07:11;;;;;;;10.43;7.63;;;4.80;88.90;;;;;;4971897;28;20207;-69
2021/12/08 09:09:42;;;;;;;9.20;6.20;;;4.80;89.30;;;;;;4973952;28;20263;-69
2021/12/08 09:12:15;;;;;;;6.73;6.03;;;4.90;89.50;;;;;;4955190;28;20223;-69
2021/12/08 09:14:46;;;;;;;10.50;6.27;;;4.90;89.80;;;;;;4958137;28;20213;-69
2021/12/08 09:17:23;;;;;;;11.07;6.10;;;4.90;89.70;;;;;;4958475;28;20648;-69
2021/12/08 09:20:09;;;;;;;8.97;6.03;;;4.90;89.80;;;;;;4958744;28;20206;-69
2021/12/08 09:22:55;;;;;;;7.80;4.70;;;5.00;89.80;;;;;;4955109;29;20286;-69
2021/12/08 09:25:30;;;;;;;8.53;5.83;;;5.00;89.40;;;;;;4954161;29;20295;-69
2021/12/08 09:28:08;;;;;;;8.40;5.97;;;5.00;89.60;;;;;;4959499;28;20211;-69
2021/12/08 09:30:48;;;;;;;9.07;5.40;;;5.00;89.70;;;;;;4956398;28;20224;-69
2021/12/08 09:33:23;;;;;;;8.27;5.53;;;5.10;89.80;;;;;;4954780;28;20230;-69
2021/12/08 09:36:16;;;;;;;15.47;5.83;;;5.10;89.60;;;;;;4957395;29;20292;-69
2021/12/08 09:38:49;;;;;;;10.73;5.50;;;5.10;90.20;;;;;;4953912;29;20254;-69
2021/12/08 09:41:28;;;;;;;8.50;6.03;;;5.20;90.10;;;;;;4956771;28;20215;-69
2021/12/08 09:44:06;;;;;;;9.80;6.40;;;5.20;90.00;;;;;;4956143;28;20602;-68
2021/12/08 09:46:37;;;;;;;8.67;5.83;;;5.20;90.10;;;;;;4956458;29;20235;-68
2021/12/08 09:49:06;;;;;;;9.50;6.10;;;5.20;90.10;;;;;;4954875;29;20208;-68
2021/12/08 09:51:35;;;;;;;8.23;5.83;;;5.20;90.00;;;;;;4953752;29;20595;-68
2021/12/08 09:54:03;;;;;;;6.13;5.50;;;5.20;90.00;;;;;;4957605;29;20205;-68
2021/12/08 09:56:33;;;;;;;8.60;5.43;;;5.20;90.10;;;;;;4956949;29;20259;-68
2021/12/08 09:59:04;;;;;;;6.63;4.93;;;5.20;90.10;;;;;;4958263;28;20283;-68
2021/12/08 10:01:34;;;;;;;8.33;5.50;;;5.30;89.90;;;;;;4956246;28;20202;-68
2021/12/08 10:04:01;;;;;;;8.10;6.03;;;5.30;90.00;;;;;;4957108;29;20206;-69
2021/12/08 10:06:29;;;;;;;8.53;5.27;;;5.30;90.20;;;;;;4958384;28;20288;-69
2021/12/08 10:08:58;;;;;;;8.87;5.67;;;5.30;90.30;;;;;;4958987;28;20529;-69
2021/12/08 10:11:29;;;;;;;7.63;5.13;;;5.40;90.40;;;;;;4954931;28;20215;-69
2021/12/08 10:13:57;;;;;;;9.23;5.40;;;5.40;90.30;;;;;;4970997;28;20215;-69
2021/12/08 10:16:26;;;;;;;6.20;5.20;;;5.40;90.50;;;;;;4957442;28;20634;-69
2021/12/08 10:18:55;;;;;;;8.53;5.20;;;5.40;90.50;;;;;;4958453;28;20222;-69
2021/12/08 10:21:52;;;;;;;7.17;4.87;;;5.50;90.40;;;;;;4956349;28;20263;-68
2021/12/08 10:24:25;;;;;;;8.07;5.83;;;5.50;90.30;;;;;;4955762;28;20226;-68
2021/12/08 10:27:01;;;;;;;11.97;5.03;;;5.60;90.30;;;;;;4957204;29;20723;-68
2021/12/08 10:29:30;;;;;;;6.23;4.73;;;5.60;90.10;;;;;;4957019;28;20311;-68
2021/12/08 10:32:00;;;;;;;8.37;5.60;;;5.60;90.30;;;;;;4953301;28;20213;-69
2021/12/08 10:34:35;;;;;;;11.57;5.00;;;5.70;90.20;;;;;;4971014;28;20208;-69
2021/12/08 10:37:17;;;;;;;8.30;5.20;;;5.60;90.30;;;;;;4955762;29;20259;-69
2021/12/08 10:39:48;;;;;;;8.03;4.90;;;5.70;90.20;;;;;;4954712;29;20220;-69
2021/12/08 10:42:17;;;;;;;11.10;5.33;;;5.70;90.40;;;;;;4956933;28;20213;-69
2021/12/08 10:45:02;;;;;;;7.20;5.03;;;5.70;90.30;;;;;;4955596;29;20639;-69
2021/12/08 10:47:48;;;;;;;7.40;4.43;;;5.80;90.20;;;;;;4972205;28;20212;-69
2021/12/08 10:56:01;;;;;;;9.47;5.00;;;5.90;89.90;;;;;;4955461;29;20541;-69
2021/12/08 10:58:31;;;;;;;9.33;5.67;;;5.80;89.70;;;;;;4957101;28;20213;-69
2021/12/08 11:01:11;;;;;;;6.37;4.67;;;5.80;89.90;;;;;;4953160;28;20290;-69
2021/12/08 11:03:39;;;;;;;7.23;5.83;;;5.80;90.20;;;;;;4955927;29;20208;-69
2021/12/08 11:06:09;;;;;;;11.50;6.77;;;5.80;90.20;;;;;;4970300;28;20225;-69
2021/12/08 11:08:39;;;;;;;8.20;6.03;;;5.80;90.50;;;;;;4956811;28;20257;-69
2021/12/08 11:11:20;;;;;;;10.07;5.97;;;5.80;90.80;;;;;;4968684;28;20204;-69
2021/12/08 11:13:50;;;;;;;10.07;5.53;;;5.80;91.00;;;;;;4959895;28;20204;-69
2021/12/08 11:16:20;;;;;;;6.90;4.60;;;5.80;90.80;;;;;;4967748;28;20271;-69
2021/12/08 11:18:50;;;;;;;8.63;5.07;;;5.80;91.00;;;;;;4955982;29;20216;-69
2021/12/08 11:21:30;;;;;;;7.37;5.43;;;5.80;90.80;;;;;;4955984;28;20283;-69
2021/12/08 11:24:24;;;;;;;12.47;5.63;;;5.90;91.00;;;;;;4967932;28;20241;-69
2021/12/08 11:26:54;;;;;;;7.80;4.87;;;6.00;90.90;;;;;;4955051;29;20216;-69
2021/12/08 11:29:30;;;;;;;7.30;4.97;;;6.00;90.90;;;;;;4951428;28;20204;-69
2021/12/08 11:32:02;;;;;;;7.03;5.20;;;6.10;90.80;;;;;;4952406;29;20648;-69
2021/12/08 11:34:34;;;;;;;6.97;4.27;;;6.10;90.90;;;;;;4954384;29;20230;-69
2021/12/08 11:37:14;;;;;;;8.17;5.07;;;6.10;90.70;;;;;;4956174;28;20240;-69
2021/12/08 11:40:01;;;;;;;8.47;4.83;;;6.20;90.90;;;;;;4952455;28;20649;-69
2021/12/08 11:42:35;;;;;;;9.40;5.00;;;6.20;90.90;;;;;;4956229;28;20288;-69
2021/12/08 11:45:12;;;;;;;11.93;5.03;;;6.30;91.00;;;;;;4966543;28;20229;-69
2021/12/08 11:47:42;;;;;;;9.07;5.60;;;6.30;91.10;;;;;;4955905;29;20287;-69
2021/12/08 11:50:21;;;;;;;8.17;4.93;;;6.40;91.20;;;;;;4949543;29;20224;-69
2021/12/08 11:52:53;;;;;;;7.87;5.23;;;6.40;91.20;;;;;;4956252;29;20271;-69
2021/12/08 11:55:24;;;;;;;7.60;4.83;;;6.40;91.30;;;;;;4967734;28;20212;-69
2021/12/08 11:57:56;;;;;;;7.30;4.70;;;6.40;91.50;;;;;;4952223;28;20762;-69
2021/12/08 12:00:32;;;;;;;7.17;4.33;;;6.40;91.70;;;;;;4971006;28;20231;-69
2021/12/08 12:03:02;;;;;;;8.50;4.17;;;6.50;92.00;;;;;;4952111;29;20217;-69
2021/12/08 12:05:46;;;;;;;6.93;5.03;;;6.50;92.10;;;;;;4954941;29;20209;-69
2021/12/08 12:08:18;;;;;;;7.90;4.20;;;6.60;92.20;;;;;;4954455;29;20266;-69
2021/12/08 12:10:48;;;;;;;6.97;4.27;;;6.60;92.30;;;;;;4950977;28;20266;-69
2021/12/08 12:13:17;;;;;;;5.13;3.40;;;6.60;92.50;;;;;;4956349;28;20219;-69
2021/12/08 12:15:48;;;;;;;7.97;3.83;;;6.60;92.60;;;;;;4952520;29;20518;-69
2021/12/08 12:18:18;;;;;;;8.33;4.17;;;6.60;92.70;;;;;;4954351;29;20669;-69
2021/12/08 12:20:56;;;;;;;6.17;3.57;;;6.70;92.90;;;;;;4953320;29;20299;-69
2021/12/08 12:23:51;;;;;;;7.80;4.40;;;6.70;93.20;;;;;;4955648;28;20266;-68
2021/12/08 12:26:53;;;;;;;7.40;3.90;;;6.70;93.30;;;;;;4952132;28;20315;-68
2021/12/08 12:30:10;;;;;;;9.07;4.13;;;6.70;93.50;;;;;;4951818;28;20241;-68
2021/12/08 12:32:52;;;;;;;7.60;5.37;;;6.80;93.50;;;;;;4933421;28;20514;-68
2021/12/08 12:35:28;;;;;;;8.33;6.20;;;6.80;93.60;;;;;;4968742;28;20642;-68
2021/12/08 12:38:05;;;;;;;9.60;5.70;;;6.80;93.70;;;;;;4956059;28;20232;-68
2021/12/08 12:40:40;;;;;;;13.10;5.33;;;6.70;93.60;;;;;;4938339;29;20295;-68
2021/12/08 12:43:09;;;;;;;8.57;5.33;;;6.70;93.80;;;;;;4952578;29;20252;-68
2021/12/08 12:45:39;;;;;;;12.10;5.67;;;6.70;93.80;;;;;;4955324;28;20220;-68
2021/12/08 12:48:11;;;;;;;10.37;5.00;;;6.60;94.10;;;;;;4955985;28;20209;-68
2021/12/08 12:51:00;;;;;;;10.97;5.53;;;6.60;94.30;;;;;;4954001;29;20213;-68
2021/12/08 12:53:54;;;;;;;12.57;5.43;;;6.60;94.50;;;;;;4952290;29;20306;-68
2021/12/08 12:56:27;;;;;;;9.33;4.83;;;6.50;94.60;;;;;;4950389;29;20287;-68
2021/12/08 12:58:56;;;;;;;10.63;5.77;;;6.50;94.80;;;;;;4953155;29;20229;-68
2021/12/08 13:01:31;;;;;;;14.17;6.03;;;6.40;95.00;;;;;;4962047;28;20212;-68
2021/12/08 13:04:19;;;;;;;10.73;5.97;;;6.30;95.20;;;;;;4952506;29;20667;-68
2021/12/08 13:06:57;;;;;;;11.50;6.53;;;6.20;95.30;;;;;;4954070;28;20263;-68
2021/12/08 13:09:36;;;;;;;10.20;7.30;;;6.20;95.40;;;;;;4958087;29;20243;-68
2021/12/08 13:12:15;;;;;;;13.87;7.30;;;6.10;95.40;;;;;;4957814;29;20221;-68
2021/12/08 13:14:47;;;;;;;17.23;8.37;;;6.00;95.40;;;;;;4959163;28;20327;-68
2021/12/08 13:17:33;;;;;;;14.63;8.87;;;5.90;95.40;;;;;;4958240;29;20621;-68
2021/12/08 13:20:12;;;;;;;14.93;8.80;;;5.80;95.50;;;;;;4973119;28;20204;-68
2021/12/08 13:23:00;;;;;;;14.00;8.50;;;5.70;95.50;;;;;;4957877;28;20719;-68
2021/12/08 13:25:29;;;;;;;13.83;8.20;;;5.70;95.70;;;;;;4955677;29;20594;-68
2021/12/08 13:31:37;;;;;;;13.47;8.47;;;5.60;96.00;;;;;;4964107;28;20316;-68
2021/12/08 13:34:10;;;;;;;10.40;8.40;;;5.60;96.20;;;;;;4956795;28;20228;-68
2021/12/08 13:36:46;;;;;;;11.50;8.43;;;5.50;96.20;;;;;;4957222;29;20216;-67
2021/12/08 13:39:26;;;;;;;14.00;8.90;;;5.50;96.30;;;;;;4955942;29;20207;-67
2021/12/08 13:42:33;;;;;;;16.27;9.87;;;5.50;96.40;;;;;;4939624;28;20628;-68
2021/12/08 13:45:10;;;;;;;11.73;8.67;;;5.50;96.40;;;;;;4957644;28;20278;-68
2021/12/08 13:47:40;;;;;;;12.70;8.70;;;5.50;96.50;;;;;;4958061;28;20245;-68
2021/12/08 13:50:14;;;;;;;11.83;9.43;;;5.40;96.70;;;;;;4957342;28;20219;-68
2021/12/08 13:52:44;;;;;;;11.83;8.97;;;5.50;96.80;;;;;;4958365;28;20204;-68
2021/12/08 13:55:19;;;;;;;10.73;8.47;;;5.50;96.90;;;;;;4957772;28;20208;-68
2021/12/08 13:57:51;;;;;;;14.57;9.30;;;5.50;97.00;;;;;;4970956;28;20263;-68
2021/12/08 14:00:29;;;;;;;11.77;8.47;;;5.50;96.90;;;;;;4968430;28;20225;-68
2021/12/08 14:03:12;;;;;;;7.90;7.03;;;5.50;96.80;;;;;;4948942;28;20211;-68
2021/12/08 14:05:46;;;;;;;10.73;8.73;;;5.50;96.50;;;;;;4956071;29;20216;-68